WetterOnline ( http://www.wetteronline.de )

Wetter aktuell Stuttgart

Aktuelles Wetter: Schnarrenberg/Stuttgart (315m)

6-stündlich | Neueste Meldungen
Ortszeit Temperatur Wetter
Do, 18.10. 8:00 9.0° C bedeckt
Do, 18.10. 2:00 12.2° C bedeckt
Mi, 17.10. 20:00 17.4° C bedeckt
Mi, 17.10. 14:00 21.3° C leicht bewölkt
Mi, 17.10. 8:00 8.0° C fast wolkenlos
Mi, 17.10. 2:00 12.2° C bedeckt
Di, 16.10. 20:00 19.3° C wolkenlos
Di, 16.10. 14:00 21.2° C wolkenlos
Ortszeit Temperatur Wetter
Do, 18.10. 8:30 9.3° C bedeckt
Do, 18.10. 8:20 9.3° C bedeckt
Do, 18.10. 8:00 9.0° C bedeckt
Do, 18.10. 7:50 9.0° C bedeckt
Do, 18.10. 7:40 9.1° C bedeckt
Do, 18.10. 7:30 8.6° C bedeckt
Do, 18.10. 7:00 9.2° C bedeckt
Do, 18.10. 6:30 8.6° C bedeckt
Do, 18.10. 6:00 9.4° C bedeckt
Do, 18.10. 5:30 10.3° C bedeckt
Ortszeit Relative Feuchte Sichtweite
Do, 18.10. 8:00 90% 13 km
Do, 18.10. 2:00 76% 28 km
Mi, 17.10. 20:00 55% 40 km
Mi, 17.10. 14:00 39% 35 km
Mi, 17.10. 8:00 90% 13 km
Mi, 17.10. 2:00 74% 28 km
Di, 16.10. 20:00 46% 40 km
Di, 16.10. 14:00 34% 35 km
Ortszeit Relative Feuchte Sichtweite
Do, 18.10. 8:30 89% 16 km
Do, 18.10. 8:20 89% -
Do, 18.10. 8:00 90% 13 km
Do, 18.10. 7:50 90% -
Do, 18.10. 7:40 90% -
Do, 18.10. 7:30 92% 11 km
Do, 18.10. 7:00 90% 15 km
Do, 18.10. 6:30 93% 11 km
Do, 18.10. 6:00 89% 15 km
Do, 18.10. 5:30 84% 19 km
Ortszeit Niederschlagsmenge Niederschlagsart
Do, 18.10. 8:00 0.0 l/m2 in 12 Std. -
Do, 18.10. 2:00 0.0 l/m2 in 6 Std. -
Mi, 17.10. 20:00 0.0 l/m2 in 12 Std. -
Mi, 17.10. 14:00 0.0 l/m2 in 6 Std. -
Mi, 17.10. 8:00 0.0 l/m2 in 12 Std. -
Mi, 17.10. 2:00 0.0 l/m2 in 6 Std. -
Di, 16.10. 20:00 0.0 l/m2 in 12 Std. -
Di, 16.10. 14:00 0.0 l/m2 in 6 Std. -
Ortszeit Niederschlagsmenge Niederschlagsart
Do, 18.10. 8:30 0.0 l/m2 in 1 Std. -
Do, 18.10. 8:20 keine Meldung -
Do, 18.10. 8:00 0.0 l/m2 in 1 Std. -
Do, 18.10. 7:50 keine Meldung -
Do, 18.10. 7:40 keine Meldung -
Do, 18.10. 7:30 0.0 l/m2 in 1 Std. -
Do, 18.10. 7:00 0.0 l/m2 in 1 Std. -
Do, 18.10. 6:30 0.0 l/m2 in 1 Std. -
Do, 18.10. 6:00 0.0 l/m2 in 1 Std. -
Do, 18.10. 5:30 0.0 l/m2 in 1 Std. -
Ortszeit Stärke Spitze Richtung
km/h Bft. km/h Grad Sektor
Do, 18.10. 8:00 4 1 11 140° SO
Do, 18.10. 2:00 6 1 11 160° S
Mi, 17.10. 20:00 9 2 17 340° N
Mi, 17.10. 14:00 4 1 22 130° SO
Mi, 17.10. 8:00 9 2 19 140° SO
Mi, 17.10. 2:00 4 1 14 180° S
Di, 16.10. 20:00 9 2 13 280° W
Di, 16.10. 14:00 4 1 18 30° NO
Ortszeit Stärke Spitze Richtung
km/h Bft. km/h Grad Sektor
Do, 18.10. 8:30 7 2 7 160° S
Do, 18.10. 8:20 7 2 - 160° S
Do, 18.10. 8:00 4 1 7 140° SO
Do, 18.10. 7:50 4 1 - 140° SO
Do, 18.10. 7:40 6 1 - 150° SO
Do, 18.10. 7:30 4 1 7 150° SO
Do, 18.10. 7:00 7 2 11 150° SO
Do, 18.10. 6:30 7 2 7 140° SO
Do, 18.10. 6:00 4 1 11 140° SO
Do, 18.10. 5:30 9 2 11 160° S
Ortszeit Untergrenze Bedeckung Gattung
total tief tief mittel hoch
Do, 18.10. 8:00 6600 m 8/8 8/8 - - -
Do, 18.10. 2:00 6900 m 8/8 8/8 - - -
Mi, 17.10. 20:00 - 8/8 - - - -
Mi, 17.10. 14:00 9000 m 7/8 0/8 - - -
Mi, 17.10. 8:00 9000 m 1/8 0/8 - - -
Mi, 17.10. 2:00 3000 m 8/8 8/8 - - -
Di, 16.10. 20:00 - 0/8 0/8 - - -
Di, 16.10. 14:00 - 0/8 0/8 - - -
Ortszeit Bedeckungsgrad in Achtel und Wolkenuntergrenze
Do, 18.10. 8:30 8(6900m)
Do, 18.10. 8:20 8(6900m)
Do, 18.10. 8:00 8(6600m) 8(9000m)
Do, 18.10. 7:50 8(6600m) 8(9000m)
Do, 18.10. 7:40 8(6600m) 8(10500m)
Do, 18.10. 7:30 8(6300m) 8(9000m)
Do, 18.10. 7:00 8(6300m) 8(8100m) 8(9000m)
Do, 18.10. 6:30 8(6000m) 8(9000m) 8(10500m)
Do, 18.10. 6:00 8(6000m) 8(8400m)
Do, 18.10. 5:30 8(6600m)
Ortszeit Luftdruck NN (hPa) Tendenz (hPa in 3 Std.)
Do, 18.10. 8:00 1020 + 0,6
Do, 18.10. 2:00 1019 - 0,2
Mi, 17.10. 20:00 1018 + 0,6
Mi, 17.10. 14:00 1018 - 1,1
Mi, 17.10. 8:00 1020 + 0,3
Mi, 17.10. 2:00 1020 - 0,2
Di, 16.10. 20:00 1019 + 0,7
Di, 16.10. 14:00 1018 - 0,5
Ortszeit Luftdruck NN (hPa) Tendenz (hPa in 3 Std.)
Do, 18.10. 8:30 1020 + 0,9
Do, 18.10. 8:20 1020 keine Meldung
Do, 18.10. 8:00 1020 + 0,6
Do, 18.10. 7:50 1020 keine Meldung
Do, 18.10. 7:40 1020 keine Meldung
Do, 18.10. 7:30 1020 + 0,4
Do, 18.10. 7:00 1020 + 0,2
Do, 18.10. 6:30 1020 + 0,1
Do, 18.10. 6:00 1020 + 0,1
Do, 18.10. 5:30 1019 - 0,2
Ortszeit Schneehöhe (cm)
Do, 18.10. 8:00 0
Do, 18.10. 2:00 0
Mi, 17.10. 20:00 0
Mi, 17.10. 14:00 0
Mi, 17.10. 8:00 0
Mi, 17.10. 2:00 0
Di, 16.10. 20:00 0
Di, 16.10. 14:00 0
Ortszeit Schneehöhe (cm)
Do, 18.10. 8:30 0
Do, 18.10. 8:20 0
Do, 18.10. 8:00 0
Do, 18.10. 7:50 0
Do, 18.10. 7:40 0
Do, 18.10. 7:30 0
Do, 18.10. 7:00 0
Do, 18.10. 6:30 0
Do, 18.10. 6:00 0
Do, 18.10. 5:30 0
Link zu dieser Seite / Seite empfehlen

Das Wetter in ...